Time;durP1;ratioP1;P1;durP2;ratioP2;P2;SDS_P1;SDS_P2;PMS_P1;PMS_P2;Temp;Humidity;BMP_temperature;BMP_pressure;BME280_temperature;BME280_humidity;BME280_pressure;Samples;Min_cycle;Max_cycle;Signal;HPM_P1;HPM_P2
2023/01/25 00:01:23;;;;;;;5.40;3.15;;;10.10;90.70;;;;;;6216944;23;20308;-87
2023/01/25 00:03:49;;;;;;;3.78;2.55;;;10.10;90.90;;;;;;6216719;23;20445;-86
2023/01/25 00:06:14;;;;;;;5.13;2.97;;;10.10;90.90;;;;;;6216652;23;20083;-87
2023/01/25 00:08:40;;;;;;;5.60;3.20;;;;;;;;;;6215925;23;20023;-86
2023/01/25 00:11:06;;;;;;;3.55;2.70;;;10.00;90.60;;;;;;6186252;23;20004;-87
2023/01/25 00:13:32;;;;;;;5.03;3.17;;;10.10;90.70;;;;;;6214774;23;20001;-86
2023/01/25 00:16:04;;;;;;;4.03;2.78;;;10.10;90.90;;;;;;6215643;23;20003;-86
2023/01/25 00:18:30;;;;;;;3.50;2.85;;;;;;;;;;6215668;23;20004;-86
2023/01/25 00:20:56;;;;;;;5.30;3.30;;;10.20;90.70;;;;;;6216346;23;19997;-86
2023/01/25 00:23:22;;;;;;;4.88;2.90;;;10.20;90.80;;;;;;6215836;23;19999;-84
2023/01/25 00:25:47;;;;;;;3.83;3.23;;;10.20;90.80;;;;;;6216137;23;20000;-83
2023/01/25 00:28:13;;;;;;;4.63;3.05;;;10.20;90.70;;;;;;6216381;23;20198;-84
2023/01/25 00:30:39;;;;;;;4.38;3.40;;;10.30;90.60;;;;;;6190040;23;20091;-83
2023/01/25 00:33:16;;;;;;;4.63;3.40;;;10.30;90.80;;;;;;6216168;23;20107;-84
2023/01/25 00:35:48;;;;;;;4.43;2.83;;;10.30;90.70;;;;;;6215713;23;20054;-83
2023/01/25 00:38:37;;;;;;;3.83;3.25;;;10.30;90.70;;;;;;6216102;23;20013;-83
2023/01/25 00:41:02;;;;;;;5.93;3.58;;;10.30;90.60;;;;;;6216480;23;20005;-83
2023/01/25 00:43:28;;;;;;;4.88;3.25;;;10.30;90.60;;;;;;6216109;23;20300;-84
2023/01/25 00:46:00;;;;;;;3.55;2.83;;;10.30;90.60;;;;;;6216478;23;20004;-84
2023/01/25 00:48:25;;;;;;;4.25;3.10;;;10.30;90.40;;;;;;6214968;23;20487;-83
2023/01/25 00:50:51;;;;;;;6.95;3.28;;;10.30;90.60;;;;;;6215691;23;19997;-83
2023/01/25 00:53:17;;;;;;;3.90;2.67;;;10.30;90.60;;;;;;6215188;23;20019;-87
2023/01/25 00:55:51;;;;;;;5.03;2.85;;;10.30;90.50;;;;;;6214478;23;20028;-86
2023/01/25 00:58:17;;;;;;;3.80;2.85;;;10.30;90.50;;;;;;6214621;23;20031;-85
2023/01/25 01:00:43;;;;;;;3.15;2.30;;;10.30;90.60;;;;;;6213725;23;20005;-84
2023/01/25 01:03:08;;;;;;;3.17;2.70;;;10.30;90.60;;;;;;6212762;23;20013;-84
2023/01/25 01:05:35;;;;;;;4.15;2.83;;;10.30;90.60;;;;;;6213448;23;20040;-84
2023/01/25 01:08:01;;;;;;;4.57;3.03;;;10.30;90.60;;;;;;6186976;23;20012;-82
2023/01/25 01:10:27;;;;;;;3.00;2.67;;;7.20;89.60;;;;;;6213930;23;20001;-81
2023/01/25 01:12:52;;;;;;;3.50;2.55;;;10.40;90.50;;;;;;6213522;23;20007;-82
2023/01/25 01:15:18;;;;;;;5.40;3.13;;;10.40;90.50;;;;;;6214128;23;20000;-82
2023/01/25 01:17:44;;;;;;;3.13;2.50;;;10.40;90.30;;;;;;6213821;23;20050;-83
2023/01/25 01:20:10;;;;;;;3.55;2.55;;;10.40;90.50;;;;;;6214270;23;20004;-83
2023/01/25 01:22:36;;;;;;;4.38;3.05;;;10.40;90.50;;;;;;6214715;23;20329;-83
2023/01/25 01:25:02;;;;;;;4.80;3.58;;;10.40;90.40;;;;;;6215867;23;20035;-83
2023/01/25 01:27:27;;;;;;;4.82;3.45;;;10.40;90.30;;;;;;6215701;23;20004;-79
2023/01/25 01:29:53;;;;;;;4.82;3.60;;;;;;;;;;6188702;23;20326;-79
2023/01/25 01:32:19;;;;;;;4.63;3.30;;;10.40;90.20;;;;;;6215664;23;20055;-80
2023/01/25 01:34:45;;;;;;;4.85;3.55;;;10.30;90.20;;;;;;6216174;23;19996;-79
2023/01/25 01:37:10;;;;;;;4.38;3.08;;;10.30;90.40;;;;;;6216155;23;20008;-79
2023/01/25 01:39:36;;;;;;;4.88;3.42;;;10.30;90.40;;;;;;6215833;23;20415;-79
2023/01/25 01:42:02;;;;;;;3.90;3.10;;;10.30;90.30;;;;;;6215518;23;20280;-79
2023/01/25 01:44:49;;;;;;;4.25;3.30;;;10.30;90.30;;;;;;6215211;23;20034;-79
2023/01/25 01:47:30;;;;;;;5.20;3.50;;;10.30;90.30;;;;;;6215252;23;20008;-80
2023/01/25 01:50:00;;;;;;;;;;;10.20;90.10;;;;;;6216259;23;20000;-79
2023/01/25 01:52:33;;;;;;;5.47;3.55;;;10.30;90.30;;;;;;6215706;23;19900;-78
2023/01/25 01:55:09;;;;;;;4.55;3.35;;;10.30;90.20;;;;;;6215384;23;20057;-79
2023/01/25 01:57:40;;;;;;;4.00;3.17;;;10.20;90.10;;;;;;6215019;23;20079;-78
2023/01/25 02:00:33;;;;;;;3.83;3.20;;;10.20;90.10;;;;;;6215577;23;20005;-78
2023/01/25 02:03:00;;;;;;;4.78;3.50;;;10.10;90.10;;;;;;6210086;23;20046;-79
2023/01/25 02:05:42;;;;;;;3.83;3.28;;;10.10;89.70;;;;;;6215953;23;20000;-78
2023/01/25 02:08:12;;;;;;;5.28;3.75;;;10.10;89.40;;;;;;6215026;23;20004;-78
2023/01/25 02:10:38;;;;;;;4.85;3.10;;;10.10;89.80;;;;;;6214603;23;20007;-78
2023/01/25 02:13:04;;;;;;;5.47;3.20;;;10.10;89.90;;;;;;6214925;23;20001;-78
2023/01/25 02:15:46;;;;;;;4.45;3.05;;;10.10;89.10;;;;;;6215587;23;20437;-78
2023/01/25 02:18:13;;;;;;;6.20;3.75;;;10.10;89.50;;;;;;6215770;23;20008;-78
2023/01/25 02:20:49;;;;;;;6.47;3.92;;;10.10;89.40;;;;;;6215533;23;20000;-78
2023/01/25 02:23:17;;;;;;;6.07;3.70;;;10.00;89.00;;;;;;6214363;23;20035;-78
2023/01/25 02:25:43;;;;;;;5.13;3.60;;;10.10;89.20;;;;;;6214964;23;20008;-77
2023/01/25 02:28:15;;;;;;;5.60;3.67;;;10.10;89.20;;;;;;6214693;23;20004;-77
2023/01/25 02:30:42;;;;;;;6.40;3.72;;;10.00;89.20;;;;;;6215104;23;20001;-77
2023/01/25 02:33:08;;;;;;;5.80;4.20;;;10.10;89.30;;;;;;6188396;23;20058;-77
2023/01/25 02:35:45;;;;;;;5.43;3.45;;;10.10;89.30;;;;;;6215139;23;20004;-77
2023/01/25 02:38:14;;;;;;;4.38;3.58;;;10.00;88.90;;;;;;6214664;23;20103;-77
2023/01/25 02:40:52;;;;;;;4.47;3.40;;;10.10;89.30;;;;;;6215143;23;20007;-76
2023/01/25 02:43:18;;;;;;;7.28;3.72;;;10.00;88.90;;;;;;6213876;23;20047;-76
2023/01/25 02:45:49;;;;;;;5.85;3.42;;;10.00;88.90;;;;;;6214965;23;20028;-76
2023/01/25 02:48:15;;;;;;;5.30;3.63;;;10.10;88.10;;;;;;6214565;23;20335;-78
2023/01/25 02:50:40;;;;;;;4.47;3.38;;;10.00;88.00;;;;;;6214493;23;20005;-77
2023/01/25 02:53:06;;;;;;;5.15;3.58;;;10.00;88.30;;;;;;6212828;23;20079;-77
2023/01/25 02:55:32;;;;;;;4.43;3.40;;;10.10;88.30;;;;;;6212720;23;20027;-77
2023/01/25 02:57:57;;;;;;;4.80;3.38;;;10.00;88.10;;;;;;6213134;23;20418;-77
2023/01/25 03:00:23;;;;;;;5.03;3.50;;;;;;;;;;6213139;23;20331;-77
2023/01/25 03:02:49;;;;;;;4.55;3.65;;;10.00;87.10;;;;;;6213488;23;20005;-77
2023/01/25 03:05:15;;;;;;;4.70;3.63;;;10.00;87.60;;;;;;6213241;23;20361;-78
2023/01/25 03:07:41;;;;;;;4.35;3.40;;;10.00;87.40;;;;;;6212844;23;20407;-77
2023/01/25 03:10:07;;;;;;;4.35;3.35;;;10.00;87.50;;;;;;6186471;23;20011;-76
2023/01/25 03:12:33;;;;;;;4.28;3.78;;;10.00;87.40;;;;;;6213705;23;20112;-76
2023/01/25 03:14:58;;;;;;;4.13;3.38;;;9.90;86.80;;;;;;6213642;23;20028;-76
2023/01/25 03:17:24;;;;;;;4.57;2.97;;;9.90;87.00;;;;;;6213203;23;20391;-75
2023/01/25 03:19:50;;;;;;;4.55;3.42;;;9.90;87.10;;;;;;6213039;23;20000;-75
2023/01/25 03:22:15;;;;;;;4.75;3.47;;;9.90;86.20;;;;;;6186862;23;20004;-75
2023/01/25 03:24:41;;;;;;;5.78;3.55;;;9.90;86.80;;;;;;6214361;23;20005;-76
2023/01/25 03:27:09;;;;;;;4.10;3.08;;;9.90;86.80;;;;;;6215221;23;20011;-76
2023/01/25 03:29:35;;;;;;;6.88;3.60;;;9.90;86.50;;;;;;6215525;23;20323;-76
2023/01/25 03:32:01;;;;;;;5.40;3.88;;;9.90;86.40;;;;;;6214502;23;20005;-76
2023/01/25 03:34:27;;;;;;;4.78;3.78;;;9.90;86.00;;;;;;6215254;23;20430;-76
2023/01/25 03:36:53;;;;;;;4.28;3.20;;;9.80;86.40;;;;;;6215015;23;20005;-76
2023/01/25 03:39:18;;;;;;;5.97;4.00;;;9.80;86.50;;;;;;6215076;23;20015;-76
2023/01/25 03:41:44;;;;;;;5.28;4.07;;;9.80;85.90;;;;;;6214329;23;20008;-76
2023/01/25 03:44:10;;;;;;;5.20;3.55;;;9.80;86.20;;;;;;6215330;23;20004;-75
2023/01/25 03:46:40;;;;;;;4.32;3.63;;;9.80;86.20;;;;;;6214075;23;20035;-76
2023/01/25 03:49:06;;;;;;;7.00;4.20;;;9.80;86.30;;;;;;6214841;23;20072;-75
2023/01/25 03:51:33;;;;;;;5.28;3.92;;;9.70;85.90;;;;;;6215390;23;20000;-77
2023/01/25 03:53:58;;;;;;;6.18;4.18;;;9.70;86.30;;;;;;6215965;23;20008;-76
2023/01/25 03:56:24;;;;;;;5.75;4.32;;;9.70;86.30;;;;;;6216292;23;20001;-76
2023/01/25 03:58:50;;;;;;;5.80;4.30;;;9.70;85.60;;;;;;6216407;23;20000;-76
2023/01/25 04:01:15;;;;;;;5.18;4.05;;;9.60;86.10;;;;;;6216336;23;20005;-76
2023/01/25 04:03:41;;;;;;;6.45;4.20;;;9.70;86.40;;;;;;6190082;23;20038;-75
2023/01/25 04:06:07;;;;;;;5.78;3.67;;;9.60;86.50;;;;;;6189428;23;20004;-76
2023/01/25 04:08:33;;;;;;;5.80;4.38;;;9.60;86.50;;;;;;6216965;23;20001;-77
2023/01/25 04:11:08;;;;;;;5.80;4.10;;;9.60;86.40;;;;;;6215299;23;20001;-76
2023/01/25 04:13:35;;;;;;;8.48;4.85;;;9.60;85.00;;;;;;6216666;23;19996;-76
2023/01/25 04:16:02;;;;;;;6.90;4.30;;;9.60;85.70;;;;;;6216857;23;20004;-77
2023/01/25 04:18:28;;;;;;;6.28;4.43;;;9.60;86.00;;;;;;6216700;23;20020;-77
2023/01/25 04:20:54;;;;;;;7.20;5.10;;;9.60;85.80;;;;;;6216260;23;20000;-76
2023/01/25 04:23:21;;;;;;;6.68;4.78;;;9.60;85.80;;;;;;6216661;23;20433;-75
2023/01/25 04:25:56;;;;;;;7.53;5.20;;;9.60;85.70;;;;;;6215498;23;20001;-76
2023/01/25 04:28:22;;;;;;;5.47;3.95;;;9.60;85.60;;;;;;6216055;23;20004;-78
2023/01/25 04:30:49;;;;;;;5.32;3.55;;;9.60;85.50;;;;;;6216226;23;20280;-77
2023/01/25 04:33:14;;;;;;;7.38;5.28;;;9.60;85.50;;;;;;6216321;23;19997;-78
2023/01/25 04:35:40;;;;;;;7.07;4.63;;;9.50;84.70;;;;;;6216583;23;20003;-76
2023/01/25 04:38:06;;;;;;;7.32;4.90;;;9.40;85.00;;;;;;6188370;23;20017;-76
2023/01/25 04:40:32;;;;;;;5.68;4.35;;;9.40;84.90;;;;;;6215143;23;20040;-77
2023/01/25 04:42:57;;;;;;;7.10;5.53;;;9.30;85.10;;;;;;6189824;23;20005;-78
2023/01/25 04:45:27;;;;;;;7.05;5.13;;;9.30;85.50;;;;;;6216249;23;20323;-77
2023/01/25 04:47:58;;;;;;;7.20;5.27;;;9.40;85.50;;;;;;6215934;23;20005;-78
2023/01/25 04:50:24;;;;;;;7.00;5.28;;;9.40;85.00;;;;;;6215958;23;20000;-78
2023/01/25 04:52:50;;;;;;;7.28;4.45;;;9.40;85.00;;;;;;6189662;23;20011;-78
2023/01/25 04:55:16;;;;;;;7.85;5.18;;;9.40;85.20;;;;;;6216153;23;20315;-78
2023/01/25 04:57:42;;;;;;;8.52;5.22;;;9.40;85.00;;;;;;6216544;23;20079;-77
2023/01/25 05:00:08;;;;;;;7.45;4.88;;;9.40;84.70;;;;;;6215225;23;20028;-77
2023/01/25 05:02:34;;;;;;;6.43;4.57;;;9.40;84.30;;;;;;6216294;23;20426;-77
2023/01/25 05:04:59;;;;;;;6.38;4.90;;;9.40;84.50;;;;;;6215838;23;20104;-77
2023/01/25 05:07:25;;;;;;;8.10;5.45;;;9.40;84.30;;;;;;6215519;23;20419;-77
2023/01/25 05:09:51;;;;;;;8.48;5.03;;;9.40;84.10;;;;;;6214555;23;20304;-76
2023/01/25 05:12:16;;;;;;;6.20;4.45;;;9.40;83.90;;;;;;6215614;23;20419;-77
2023/01/25 05:14:42;;;;;;;9.95;5.82;;;9.50;83.90;;;;;;6215546;23;20029;-77
2023/01/25 05:17:08;;;;;;;8.98;5.85;;;;;;;;;;6215662;23;20008;-77
2023/01/25 05:19:34;;;;;;;7.60;5.07;;;9.40;82.80;;;;;;6215755;23;20088;-76
2023/01/25 05:22:06;;;;;;;7.88;5.93;;;9.40;83.30;;;;;;6216031;23;20000;-78
2023/01/25 05:24:33;;;;;;;6.65;5.13;;;9.40;82.70;;;;;;6215513;23;20319;-78
2023/01/25 05:27:00;;;;;;;6.85;5.10;;;9.40;83.10;;;;;;6215939;23;20016;-79
2023/01/25 05:29:35;;;;;;;7.55;5.13;;;9.40;83.20;;;;;;6188891;23;20004;-78
2023/01/25 05:32:05;;;;;;;6.50;4.63;;;9.50;82.80;;;;;;6215871;23;20418;-79
2023/01/25 05:34:31;;;;;;;7.65;4.97;;;9.40;82.90;;;;;;6215678;23;20011;-78
2023/01/25 05:36:57;;;;;;;8.13;5.50;;;9.40;82.80;;;;;;6188711;23;20008;-78
2023/01/25 05:39:23;;;;;;;7.00;5.10;;;9.40;83.10;;;;;;6214585;23;20066;-77
2023/01/25 05:41:49;;;;;;;6.10;4.80;;;9.40;83.60;;;;;;6215710;23;20004;-79
2023/01/25 05:44:15;;;;;;;7.97;5.38;;;9.40;83.30;;;;;;6215693;23;20008;-79
2023/01/25 05:46:40;;;;;;;7.82;5.25;;;9.40;83.40;;;;;;6215357;23;20008;-78
2023/01/25 05:49:06;;;;;;;7.18;5.47;;;9.40;83.60;;;;;;6215438;23;20000;-79
2023/01/25 05:51:34;;;;;;;8.32;5.50;;;9.40;83.00;;;;;;6214739;23;20047;-79
2023/01/25 05:54:00;;;;;;;6.50;4.85;;;9.40;83.30;;;;;;6189045;23;20008;-78
2023/01/25 05:56:26;;;;;;;6.20;4.72;;;9.40;83.10;;;;;;6214959;23;20072;-78
2023/01/25 05:58:53;;;;;;;6.10;4.75;;;9.40;82.80;;;;;;6215733;23;20075;-78
2023/01/25 06:01:19;;;;;;;7.57;5.63;;;9.50;82.20;;;;;;6215330;23;20426;-79
2023/01/25 06:03:45;;;;;;;6.22;4.60;;;9.50;82.70;;;;;;6215176;23;20104;-83
2023/01/25 06:06:11;;;;;;;7.18;4.90;;;9.50;82.60;;;;;;6188199;23;20445;-84
2023/01/25 06:08:41;;;;;;;8.65;5.15;;;9.40;81.80;;;;;;6215177;23;20001;-82
2023/01/25 06:11:09;;;;;;;6.90;4.55;;;9.40;82.20;;;;;;6187670;23;20008;-83
2023/01/25 06:13:35;;;;;;;8.63;4.70;;;9.40;82.10;;;;;;6214854;23;20043;-84
2023/01/25 06:16:09;;;;;;;7.10;4.38;;;9.40;81.80;;;;;;6214980;23;20001;-83
2023/01/25 06:18:36;;;;;;;6.25;4.60;;;9.40;81.60;;;;;;6213791;23;20012;-83
2023/01/25 06:21:03;;;;;;;5.43;4.05;;;9.40;82.00;;;;;;6214585;23;20314;-83
2023/01/25 06:23:31;;;;;;;8.88;5.00;;;9.40;81.30;;;;;;6215809;23;20001;-82
2023/01/25 06:26:01;;;;;;;5.57;4.07;;;9.40;80.50;;;;;;6214619;23;20001;-80
2023/01/25 06:28:34;;;;;;;7.25;4.80;;;9.50;81.10;;;;;;6214582;23;20000;-83
2023/01/25 06:31:11;;;;;;;5.50;4.18;;;9.40;80.30;;;;;;6214735;23;20422;-82
2023/01/25 06:33:38;;;;;;;5.72;4.13;;;9.50;81.00;;;;;;6215058;23;20005;-82
2023/01/25 06:36:08;;;;;;;9.20;5.10;;;9.50;80.80;;;;;;6213477;23;20001;-82
2023/01/25 06:38:34;;;;;;;7.40;5.28;;;9.50;80.40;;;;;;6214623;23;20450;-82
2023/01/25 06:41:01;;;;;;;9.40;5.43;;;9.50;80.80;;;;;;6187502;23;20028;-82
2023/01/25 06:43:27;;;;;;;7.28;4.93;;;9.50;80.50;;;;;;6215349;23;20055;-82
2023/01/25 06:46:00;;;;;;;6.05;4.38;;;9.50;80.20;;;;;;6215417;23;20005;-84
2023/01/25 06:48:27;;;;;;;6.75;4.63;;;9.50;80.40;;;;;;6214788;23;20349;-84
2023/01/25 06:50:58;;;;;;;6.75;4.10;;;9.60;81.30;;;;;;6215135;23;20466;-85
2023/01/25 06:53:26;;;;;;;6.93;4.75;;;9.60;81.10;;;;;;6215243;23;20059;-85
2023/01/25 06:56:16;;;;;;;8.27;5.40;;;9.60;81.50;;;;;;6215134;23;20000;-84
2023/01/25 06:58:42;;;;;;;7.32;4.93;;;9.60;81.10;;;;;;6215870;23;20012;-84
2023/01/25 07:01:13;;;;;;;9.02;5.25;;;9.60;81.10;;;;;;6213495;23;19996;-85
2023/01/25 07:03:38;;;;;;;;;;;9.60;81.20;;;;;;6214232;23;20078;-85
2023/01/25 07:06:06;;;;;;;9.40;6.03;;;9.60;80.90;;;;;;6214356;23;19899;-85
2023/01/25 07:08:33;;;;;;;9.02;5.78;;;9.60;81.40;;;;;;6215051;23;20335;-85
2023/01/25 07:11:02;;;;;;;11.07;7.20;;;9.50;81.50;;;;;;6214814;23;20008;-85
2023/01/25 07:13:29;;;;;;;8.77;5.90;;;9.50;81.40;;;;;;6214628;23;20001;-83
2023/01/25 07:15:57;;;;;;;7.78;5.63;;;9.50;81.90;;;;;;6214410;23;20001;-84
2023/01/25 07:18:24;;;;;;;7.28;5.10;;;9.40;81.80;;;;;;6213781;23;20445;-84
2023/01/25 07:20:50;;;;;;;8.98;4.88;;;9.50;82.30;;;;;;6187461;23;20009;-86
2023/01/25 07:23:16;;;;;;;9.73;5.63;;;9.50;83.30;;;;;;6215109;23;20284;-85
2023/01/25 07:25:47;;;;;;;8.13;6.38;;;9.40;83.70;;;;;;6215711;23;20047;-84
2023/01/25 07:28:12;;;;;;;;;;;9.50;83.90;;;;;;6217191;23;20008;-82
2023/01/25 07:30:40;;;;;;;8.82;6.22;;;9.40;83.60;;;;;;6215745;23;19946;-86
2023/01/25 07:33:06;;;;;;;8.85;5.90;;;9.50;84.30;;;;;;6196634;23;20001;-76
2023/01/25 07:35:32;;;;;;;8.30;6.00;;;9.30;84.60;;;;;;6215540;23;20423;-83
2023/01/25 07:37:58;;;;;;;6.95;5.47;;;9.20;84.70;;;;;;6189364;23;20039;-81
2023/01/25 07:40:24;;;;;;;9.30;6.50;;;;;;;;;;6215060;23;20005;-82
2023/01/25 07:42:51;;;;;;;7.68;5.93;;;9.20;84.70;;;;;;6213224;23;20008;-83
2023/01/25 07:45:17;;;;;;;8.63;5.53;;;9.20;85.30;;;;;;6215309;23;20004;-82
2023/01/25 07:47:42;;;;;;;7.43;5.90;;;9.30;84.90;;;;;;6216377;23;20031;-76
2023/01/25 07:50:09;;;;;;;8.20;6.28;;;9.30;85.40;;;;;;6189950;23;20000;-76
2023/01/25 07:52:35;;;;;;;8.05;5.35;;;9.30;85.40;;;;;;6215620;23;20007;-76
2023/01/25 07:55:01;;;;;;;6.85;5.50;;;9.40;85.50;;;;;;6215966;23;20024;-76
2023/01/25 07:57:27;;;;;;;8.02;5.80;;;;;;;;;;6188963;23;20008;-82
2023/01/25 07:59:54;;;;;;;8.32;5.45;;;9.30;84.90;;;;;;6216186;23;20004;-84
2023/01/25 08:02:19;;;;;;;7.38;5.72;;;9.40;85.40;;;;;;6215123;23;20004;-76
2023/01/25 08:04:46;;;;;;;9.60;5.45;;;9.30;85.30;;;;;;6216863;23;20097;-75
2023/01/25 08:07:13;;;;;;;8.20;4.97;;;9.30;84.70;;;;;;6189468;23;20008;-76
2023/01/25 08:09:40;;;;;;;7.38;4.95;;;9.30;84.70;;;;;;6216857;23;20071;-76
2023/01/25 08:12:06;;;;;;;7.63;5.38;;;9.40;85.10;;;;;;6189875;23;20442;-82
2023/01/25 08:14:32;;;;;;;10.27;5.60;;;9.40;85.10;;;;;;6216589;23;20051;-83
2023/01/25 08:16:58;;;;;;;6.20;5.07;;;9.40;84.70;;;;;;6189466;23;20431;-82
2023/01/25 08:19:25;;;;;;;7.43;5.45;;;9.50;84.30;;;;;;6216822;23;20000;-82
2023/01/25 08:21:51;;;;;;;8.05;5.78;;;9.60;83.90;;;;;;6213364;23;20005;-83
2023/01/25 08:24:17;;;;;;;7.88;5.25;;;9.50;84.20;;;;;;6215252;23;20314;-83
2023/01/25 08:26:43;;;;;;;7.40;5.18;;;9.60;84.10;;;;;;6214110;23;20092;-82
2023/01/25 08:29:11;;;;;;;8.18;5.25;;;9.70;83.40;;;;;;6216396;23;20323;-82
2023/01/25 08:31:40;;;;;;;9.40;5.28;;;9.80;83.20;;;;;;6185212;23;20087;-81
2023/01/25 08:34:05;;;;;;;7.68;5.47;;;9.80;83.40;;;;;;6212074;23;20336;-84
2023/01/25 08:36:32;;;;;;;10.38;5.80;;;9.90;83.10;;;;;;6215458;23;20001;-83
2023/01/25 08:39:01;;;;;;;8.38;6.15;;;9.90;82.40;;;;;;6213475;23;20016;-83
2023/01/25 08:41:28;;;;;;;9.13;5.72;;;9.90;81.50;;;;;;6212511;23;20434;-77
2023/01/25 08:43:55;;;;;;;6.53;4.93;;;10.00;82.50;;;;;;6215225;23;20000;-74
2023/01/25 08:46:22;;;;;;;9.98;6.15;;;10.10;82.10;;;;;;6216237;23;20426;-85
2023/01/25 08:48:55;;;;;;;10.45;6.18;;;10.10;82.10;;;;;;6189898;23;20005;-76
2023/01/25 08:51:22;;;;;;;8.18;5.32;;;10.30;81.50;;;;;;6216207;23;20008;-77
2023/01/25 08:53:48;;;;;;;8.02;5.40;;;10.30;81.90;;;;;;6216015;23;20000;-84
2023/01/25 08:56:15;;;;;;;9.15;5.47;;;10.40;81.60;;;;;;6216228;23;20001;-84
2023/01/25 08:58:43;;;;;;;6.53;4.75;;;10.60;81.70;;;;;;6215477;23;20027;-87
2023/01/25 09:01:10;;;;;;;9.65;5.88;;;;;;;;;;6216192;23;20011;-87
2023/01/25 09:03:38;;;;;;;6.88;5.18;;;10.80;80.80;;;;;;6215301;23;20055;-87
2023/01/25 09:06:04;;;;;;;7.03;5.18;;;11.00;80.70;;;;;;6215925;23;20004;-86
2023/01/25 09:08:32;;;;;;;6.70;4.95;;;11.20;79.60;;;;;;6216099;23;20311;-87
2023/01/25 09:11:09;;;;;;;8.88;5.03;;;11.20;78.70;;;;;;6217160;23;19997;-86
2023/01/25 09:13:35;;;;;;;10.02;6.03;;;11.30;79.30;;;;;;6216458;23;20045;-86
2023/01/25 09:16:06;;;;;;;9.90;5.53;;;11.50;78.50;;;;;;6211340;23;20001;-85
2023/01/25 09:18:34;;;;;;;7.40;4.70;;;11.60;78.70;;;;;;6213700;23;20088;-86
2023/01/25 09:21:11;;;;;;;7.20;4.95;;;11.90;77.10;;;;;;6215783;23;20000;-84
2023/01/25 09:23:37;;;;;;;10.00;5.70;;;11.90;77.60;;;;;;6190509;23;20293;-85
2023/01/25 09:26:04;;;;;;;8.57;4.75;;;12.00;76.70;;;;;;6215182;23;20024;-86
2023/01/25 09:28:30;;;;;;;8.93;5.05;;;12.10;76.60;;;;;;6215343;23;20001;-85
2023/01/25 09:31:04;;;;;;;6.20;4.63;;;12.10;73.80;;;;;;6214844;23;20146;-85
2023/01/25 09:33:35;;;;;;;8.15;4.60;;;12.20;75.00;;;;;;6214863;23;20007;-85
2023/01/25 09:36:01;;;;;;;7.05;4.97;;;12.20;75.20;;;;;;6215238;23;20055;-85
2023/01/25 09:38:27;;;;;;;7.88;4.72;;;12.30;75.10;;;;;;6213624;23;20079;-86
2023/01/25 09:41:31;;;;;;;6.40;4.45;;;12.40;75.00;;;;;;6213505;23;20000;-86
2023/01/25 09:44:15;;;;;;;7.47;4.75;;;12.60;73.40;;;;;;6063469;23;20018;-86
2023/01/25 09:46:49;;;;;;;7.93;4.95;;;12.70;73.90;;;;;;6205370;23;20064;-85
2023/01/25 09:49:44;;;;;;;8.65;5.95;;;12.70;73.50;;;;;;6213131;23;19997;-85
2023/01/25 09:52:52;;;;;;;7.70;4.90;;;12.80;72.80;;;;;;6187101;23;20008;-76
2023/01/25 09:55:24;;;;;;;6.70;4.85;;;12.90;72.40;;;;;;6214506;23;19997;-85
2023/01/25 09:57:52;;;;;;;6.57;4.63;;;13.00;72.10;;;;;;6187835;23;20012;-76
2023/01/25 10:00:22;;;;;;;6.65;4.07;;;13.00;71.80;;;;;;6214096;23;20107;-75
2023/01/25 10:02:57;;;;;;;6.80;4.30;;;13.10;71.90;;;;;;6214046;23;20075;-76
2023/01/25 10:05:27;;;;;;;5.35;3.90;;;13.10;72.10;;;;;;6214641;23;20000;-77
2023/01/25 10:08:15;;;;;;;6.53;4.47;;;13.40;72.90;;;;;;6214555;23;20008;-76
2023/01/25 10:10:43;;;;;;;6.03;3.90;;;13.60;72.80;;;;;;6187593;23;20005;-76
2023/01/25 10:13:18;;;;;;;6.30;4.65;;;13.80;72.40;;;;;;6188025;23;20413;-85
2023/01/25 10:15:49;;;;;;;7.72;4.95;;;13.90;71.50;;;;;;6214489;23;20007;-86
2023/01/25 10:18:34;;;;;;;6.88;4.30;;;14.10;70.80;;;;;;6214443;23;20005;-85
2023/01/25 10:21:11;;;;;;;8.02;4.88;;;14.20;69.80;;;;;;6213928;23;20012;-83
2023/01/25 10:23:46;;;;;;;7.75;4.32;;;14.20;68.00;;;;;;6213726;23;20090;-86
2023/01/25 10:26:21;;;;;;;5.35;3.88;;;14.30;69.10;;;;;;6214272;23;20011;-75
2023/01/25 10:29:13;;;;;;;5.55;3.97;;;14.50;69.40;;;;;;6214590;23;20005;-76
2023/01/25 10:31:52;;;;;;;5.40;3.47;;;14.40;69.80;;;;;;6213832;23;20054;-76
2023/01/25 10:34:23;;;;;;;5.68;3.90;;;14.50;68.10;;;;;;6214066;23;20009;-76
2023/01/25 10:36:59;;;;;;;4.35;3.38;;;14.60;68.70;;;;;;6214161;23;20079;-85
2023/01/25 10:39:25;;;;;;;4.38;3.60;;;14.80;69.00;;;;;;6213923;23;20087;-75
2023/01/25 10:42:14;;;;;;;5.82;3.80;;;14.80;65.10;;;;;;6214137;23;20032;-86
2023/01/25 10:44:39;;;;;;;4.55;3.08;;;14.90;67.40;;;;;;6186511;23;20023;-85
2023/01/25 10:47:28;;;;;;;5.28;3.63;;;15.00;68.20;;;;;;6214229;23;20028;-85
2023/01/25 10:49:55;;;;;;;6.25;4.30;;;15.10;65.50;;;;;;6187152;23;20024;-76
2023/01/25 10:52:23;;;;;;;5.07;3.40;;;15.20;66.30;;;;;;6212496;23;20023;-76
2023/01/25 10:55:16;;;;;;;5.35;3.53;;;15.20;67.40;;;;;;6212290;23;20050;-76
2023/01/25 10:57:56;;;;;;;5.43;3.88;;;15.40;67.30;;;;;;6212787;23;20039;-76
2023/01/25 11:00:31;;;;;;;7.78;5.10;;;15.50;66.60;;;;;;6214199;23;20004;-76
2023/01/25 11:02:57;;;;;;;4.68;3.45;;;15.50;66.10;;;;;;6215985;23;20008;-76
2023/01/25 11:05:24;;;;;;;7.00;3.80;;;15.60;65.60;;;;;;6215895;23;20001;-76
2023/01/25 11:07:50;;;;;;;5.55;3.50;;;15.70;65.90;;;;;;6215499;23;20084;-84
2023/01/25 11:10:36;;;;;;;7.25;3.75;;;15.80;66.40;;;;;;6215396;23;20070;-84
2023/01/25 11:13:28;;;;;;;5.63;3.20;;;15.90;63.20;;;;;;6215262;23;20008;-84
2023/01/25 11:16:00;;;;;;;6.57;2.97;;;16.00;62.50;;;;;;6216118;23;20004;-84
2023/01/25 11:18:32;;;;;;;4.07;2.78;;;16.00;64.20;;;;;;6189170;23;20008;-85
2023/01/25 11:21:15;;;;;;;3.95;2.70;;;16.20;63.40;;;;;;6215253;23;20005;-76
2023/01/25 11:23:41;;;;;;;3.58;2.42;;;16.40;62.30;;;;;;6215195;23;20361;-83
2023/01/25 11:26:17;;;;;;;4.55;3.15;;;16.50;60.00;;;;;;6215727;23;20084;-84
2023/01/25 11:28:47;;;;;;;5.45;2.97;;;16.50;60.80;;;;;;6215402;23;20005;-84
2023/01/25 11:31:18;;;;;;;4.53;2.38;;;16.40;61.10;;;;;;6214626;23;20012;-85
2023/01/25 11:33:44;;;;;;;5.45;3.25;;;16.40;61.00;;;;;;6214578;23;20009;-83
2023/01/25 11:36:32;;;;;;;3.50;2.70;;;16.50;59.40;;;;;;6214883;23;20429;-84
2023/01/25 11:39:34;;;;;;;6.03;3.78;;;16.60;59.60;;;;;;6214936;23;20319;-83
2023/01/25 11:42:24;;;;;;;3.90;2.55;;;16.50;59.30;;;;;;6215718;23;20000;-76
2023/01/25 11:45:00;;;;;;;5.68;2.85;;;16.60;60.30;;;;;;6215282;23;20342;-84
2023/01/25 11:47:38;;;;;;;3.58;2.33;;;16.80;60.60;;;;;;6188812;23;20009;-85
2023/01/25 11:50:22;;;;;;;5.25;3.20;;;17.10;57.20;;;;;;6215157;23;20001;-85
2023/01/25 11:53:10;;;;;;;4.85;2.88;;;17.40;59.40;;;;;;6216194;23;19997;-85
2023/01/25 11:55:49;;;;;;;5.13;3.20;;;18.00;55.50;;;;;;6215097;23;20043;-85
2023/01/25 11:58:20;;;;;;;4.97;3.13;;;18.80;56.50;;;;;;6216251;23;20031;-85
2023/01/25 12:01:02;;;;;;;9.00;3.45;;;19.70;54.50;;;;;;6216441;23;20378;-85
2023/01/25 12:03:51;;;;;;;5.38;3.47;;;20.70;51.20;;;;;;6216372;23;20001;-85
2023/01/25 12:06:47;;;;;;;5.00;3.33;;;21.70;49.70;;;;;;6175949;23;20011;-84
2023/01/25 12:09:39;;;;;;;4.63;3.33;;;22.70;48.80;;;;;;6216328;23;19996;-84
2023/01/25 12:12:40;;;;;;;7.65;3.38;;;23.60;45.80;;;;;;6216021;23;20004;-85
2023/01/25 12:15:19;;;;;;;6.72;3.67;;;24.40;43.50;;;;;;6216148;23;20001;-85
2023/01/25 12:18:26;;;;;;;5.15;3.88;;;25.00;41.50;;;;;;6216187;23;20027;-85
2023/01/25 12:21:04;;;;;;;7.05;3.22;;;25.50;39.40;;;;;;6187665;23;20088;-80
2023/01/25 12:23:48;;;;;;;4.95;3.47;;;25.60;38.10;;;;;;6188037;23;20001;-79
2023/01/25 12:26:43;;;;;;;4.97;3.60;;;25.70;38.70;;;;;;6214716;23;20075;-83
2023/01/25 12:29:23;;;;;;;5.57;3.40;;;25.80;36.70;;;;;;6158315;23;20007;-83
2023/01/25 12:32:11;;;;;;;6.10;3.50;;;25.80;37.60;;;;;;6215000;23;20072;-83
2023/01/25 12:34:47;;;;;;;7.70;3.70;;;25.90;37.20;;;;;;6188331;23;20008;-83
2023/01/25 12:37:27;;;;;;;5.50;3.08;;;26.00;37.50;;;;;;6215667;23;20007;-79
2023/01/25 12:39:56;;;;;;;3.80;3.13;;;26.00;37.40;;;;;;6188765;23;20386;-79
2023/01/25 12:42:30;;;;;;;7.63;3.60;;;26.00;36.90;;;;;;6215388;23;20000;-79
2023/01/25 12:45:18;;;;;;;6.10;3.65;;;26.00;37.50;;;;;;6214471;23;20000;-79
2023/01/25 12:47:59;;;;;;;5.10;3.22;;;25.60;36.10;;;;;;6214572;23;20080;-79
2023/01/25 12:50:37;;;;;;;4.68;3.40;;;25.60;35.60;;;;;;6187492;23;20007;-78
2023/01/25 12:53:26;;;;;;;4.07;3.22;;;25.30;37.20;;;;;;6214254;23;20001;-79
2023/01/25 12:55:53;;;;;;;5.90;3.17;;;24.90;37.20;;;;;;6213895;23;20070;-82
2023/01/25 12:58:23;;;;;;;6.85;3.58;;;24.40;37.90;;;;;;6214927;23;20410;-82
2023/01/25 13:01:07;;;;;;;;;;;24.30;38.90;;;;;;6215354;23;20019;-82
2023/01/25 13:03:36;;;;;;;6.60;3.00;;;24.10;38.40;;;;;;6214324;23;19943;-80
2023/01/25 13:06:14;;;;;;;4.90;2.67;;;23.70;37.60;;;;;;6214795;23;20005;-79
2023/01/25 13:09:09;;;;;;;6.32;2.92;;;23.70;37.80;;;;;;6214367;23;20009;-79
2023/01/25 13:11:38;;;;;;;7.10;3.88;;;23.70;38.10;;;;;;6187852;23;20016;-82
2023/01/25 13:14:19;;;;;;;6.35;3.10;;;23.20;37.60;;;;;;6214654;23;20307;-83